Time;durP1;ratioP1;P1;durP2;ratioP2;P2;SDS_P1;SDS_P2;PMS_P1;PMS_P2;Temp;Humidity;BMP_temperature;BMP_pressure;BME280_temperature;BME280_humidity;BME280_pressure;Samples;Min_cycle;Max_cycle;Signal;HPM_P1;HPM_P2
2022/03/12 04:00:36;;;;;;;12.07;10.87;;;2.60;75.50;;;;;;5814892;23;20240;-77
2022/03/12 04:03:02;;;;;;;13.17;11.87;;;2.60;75.50;;;;;;4949989;29;20190;-77
2022/03/12 04:05:34;;;;;;;18.63;12.30;;;2.60;75.80;;;;;;4937768;29;20265;-77
2022/03/12 04:08:00;;;;;;;16.47;12.47;;;2.70;75.40;;;;;;4948879;29;20281;-77
2022/03/12 04:10:29;;;;;;;13.50;12.10;;;2.70;75.90;;;;;;4939642;29;20182;-77
2022/03/12 04:12:57;;;;;;;12.87;11.70;;;2.70;75.10;;;;;;4957991;23;20238;-78
2022/03/12 04:15:23;;;;;;;12.30;11.10;;;2.70;75.30;;;;;;4943643;29;20610;-78
2022/03/12 04:17:52;;;;;;;16.10;12.97;;;2.70;75.70;;;;;;4943932;29;20187;-78
2022/03/12 04:20:22;;;;;;;13.00;11.00;;;2.70;75.60;;;;;;4939826;29;20178;-77
2022/03/12 04:22:50;;;;;;;12.57;11.37;;;2.60;76.60;;;;;;4944062;29;20206;-77
2022/03/12 04:25:17;;;;;;;13.83;12.43;;;2.60;76.50;;;;;;4943010;29;20182;-77
2022/03/12 04:27:44;;;;;;;12.87;11.47;;;2.60;76.90;;;;;;4940545;29;20222;-77
2022/03/12 04:30:12;;;;;;;15.27;11.63;;;2.60;77.20;;;;;;4939999;29;20674;-77
2022/03/12 04:32:39;;;;;;;13.57;12.17;;;2.50;77.20;;;;;;4939358;29;20214;-77
2022/03/12 04:35:05;;;;;;;12.90;11.40;;;2.50;77.60;;;;;;4938113;29;20661;-78
2022/03/12 04:37:33;;;;;;;13.37;11.97;;;2.50;77.70;;;;;;4946188;29;20189;-77
2022/03/12 04:39:58;;;;;;;13.83;12.30;;;2.40;77.80;;;;;;4945558;29;20686;-76
2022/03/12 04:42:24;;;;;;;13.03;11.63;;;2.40;78.00;;;;;;4940138;29;20186;-77
2022/03/12 04:44:50;;;;;;;12.53;11.20;;;2.40;79.10;;;;;;4941600;29;20540;-77
2022/03/12 04:47:22;;;;;;;14.47;11.60;;;2.40;78.50;;;;;;4944581;29;20701;-78
2022/03/12 04:49:48;;;;;;;13.13;11.77;;;2.40;78.70;;;;;;4939406;29;20615;-76
2022/03/12 04:52:14;;;;;;;13.67;12.27;;;2.30;78.90;;;;;;4936937;29;20244;-77
2022/03/12 04:54:40;;;;;;;12.70;11.27;;;2.30;79.00;;;;;;4939273;29;20203;-78
2022/03/12 04:57:06;;;;;;;14.73;12.40;;;2.30;79.30;;;;;;4950424;29;20179;-78
2022/03/12 04:59:32;;;;;;;14.10;12.60;;;2.30;79.50;;;;;;4944557;29;20206;-78
2022/03/12 05:01:58;;;;;;;13.47;12.10;;;2.20;79.90;;;;;;4943185;29;20175;-78
2022/03/12 05:04:23;;;;;;;12.37;11.07;;;2.20;80.50;;;;;;4938975;29;20208;-73
2022/03/12 05:06:49;;;;;;;13.63;11.67;;;2.30;80.50;;;;;;4926523;29;20218;-73
2022/03/12 05:09:15;;;;;;;13.53;12.03;;;2.20;80.30;;;;;;4928307;29;20186;-73
2022/03/12 05:11:41;;;;;;;13.97;11.70;;;2.20;80.60;;;;;;4934826;29;20202;-73
2022/03/12 05:14:10;;;;;;;15.43;11.80;;;2.20;80.60;;;;;;4933697;29;20706;-73
2022/03/12 05:16:36;;;;;;;13.93;12.53;;;2.20;80.90;;;;;;4934723;29;20196;-73
2022/03/12 05:19:06;;;;;;;15.53;12.67;;;2.20;81.20;;;;;;4933462;29;20197;-73
2022/03/12 05:21:32;;;;;;;13.00;11.43;;;2.20;81.60;;;;;;4933193;29;20187;-74
2022/03/12 05:23:58;;;;;;;13.87;11.80;;;2.20;82.00;;;;;;4934506;29;20210;-74
2022/03/12 05:26:24;;;;;;;13.13;11.23;;;2.10;83.10;;;;;;4932989;29;20241;-74
2022/03/12 05:28:49;;;;;;;15.80;11.83;;;2.20;83.50;;;;;;4933969;29;20189;-74
2022/03/12 05:31:16;;;;;;;14.13;10.97;;;2.10;84.30;;;;;;4934370;29;20636;-75
2022/03/12 05:33:43;;;;;;;13.40;12.00;;;2.10;83.80;;;;;;4933024;29;20305;-74
2022/03/12 05:36:09;;;;;;;14.07;12.00;;;2.20;84.50;;;;;;4932551;29;20186;-74
2022/03/12 05:38:35;;;;;;;15.40;11.83;;;2.20;84.10;;;;;;4932667;29;20187;-74
2022/03/12 05:41:01;;;;;;;14.27;11.67;;;2.20;83.70;;;;;;4934340;29;20273;-73
2022/03/12 05:43:27;;;;;;;16.93;11.70;;;2.20;84.40;;;;;;4934010;29;20675;-74
2022/03/12 05:45:54;;;;;;;15.17;11.93;;;2.30;85.10;;;;;;4934074;29;20185;-72
2022/03/12 05:48:20;;;;;;;12.87;11.60;;;2.30;84.50;;;;;;4933842;29;20565;-74
2022/03/12 05:50:51;;;;;;;20.63;11.97;;;2.40;85.30;;;;;;4932851;29;20194;-73
2022/03/12 05:53:19;;;;;;;12.50;11.20;;;2.50;85.60;;;;;;4932533;29;20325;-74
2022/03/12 05:55:47;;;;;;;12.73;11.40;;;2.60;85.10;;;;;;4933753;29;20189;-74
2022/03/12 05:58:17;;;;;;;16.97;11.63;;;2.60;85.50;;;;;;4933448;29;20182;-74
2022/03/12 06:00:43;;;;;;;16.30;11.83;;;2.50;86.00;;;;;;4932923;29;20586;-74
2022/03/12 06:03:12;;;;;;;15.30;11.97;;;2.60;88.00;;;;;;4933807;29;20244;-73
2022/03/12 06:05:43;;;;;;;14.40;11.50;;;2.60;89.20;;;;;;4933521;29;20285;-73
2022/03/12 06:08:12;;;;;;;15.10;12.57;;;2.50;90.10;;;;;;4931917;29;20274;-73
2022/03/12 06:10:38;;;;;;;16.17;12.57;;;2.50;90.50;;;;;;4932820;29;20275;-73
2022/03/12 06:13:05;;;;;;;14.60;12.13;;;2.40;90.60;;;;;;4933175;29;20218;-73
2022/03/12 06:15:32;;;;;;;14.30;11.83;;;2.40;90.60;;;;;;4933574;29;20185;-73
2022/03/12 06:17:58;;;;;;;14.60;12.57;;;2.40;90.80;;;;;;4931991;29;20182;-73
2022/03/12 06:20:24;;;;;;;17.10;12.03;;;2.40;90.70;;;;;;4933572;29;20187;-74
2022/03/12 06:22:51;;;;;;;14.60;12.27;;;2.40;90.60;;;;;;4933520;29;20242;-74
2022/03/12 06:25:18;;;;;;;17.00;12.93;;;2.30;91.20;;;;;;4933405;29;20209;-74
2022/03/12 06:27:53;;;;;;;15.23;13.13;;;2.30;91.90;;;;;;4912913;29;20682;-73
2022/03/12 06:30:22;;;;;;;16.53;14.60;;;2.30;92.40;;;;;;4914815;29;20243;-73
2022/03/12 06:32:48;;;;;;;20.87;14.37;;;2.30;93.40;;;;;;4913830;29;20632;-73
2022/03/12 06:35:15;;;;;;;16.83;13.80;;;2.40;93.80;;;;;;4913343;29;20191;-75
2022/03/12 06:37:42;;;;;;;27.73;15.03;;;2.40;93.60;;;;;;4931699;29;20183;-75
2022/03/12 06:40:10;;;;;;;20.57;14.53;;;2.40;94.60;;;;;;4933711;29;20194;-74
2022/03/12 06:42:39;;;;;;;22.43;14.33;;;2.40;95.00;;;;;;4933019;29;20188;-74
2022/03/12 06:45:08;;;;;;;28.80;14.40;;;2.40;94.10;;;;;;4932421;29;20198;-74
2022/03/12 06:47:38;;;;;;;18.83;13.57;;;2.50;94.60;;;;;;4931670;29;20669;-74
2022/03/12 06:50:08;;;;;;;17.90;12.77;;;2.60;94.50;;;;;;4932318;29;20190;-74
2022/03/12 06:52:34;;;;;;;22.77;13.43;;;2.70;93.40;;;;;;4932312;29;20233;-73
2022/03/12 06:55:01;;;;;;;22.97;13.20;;;2.80;93.70;;;;;;4932338;29;20568;-73
2022/03/12 06:57:27;;;;;;;17.87;13.07;;;2.90;93.60;;;;;;4932593;29;20189;-73
2022/03/12 06:59:52;;;;;;;16.03;12.30;;;3.10;93.10;;;;;;4932497;29;20178;-75
2022/03/12 07:02:18;;;;;;;20.03;14.80;;;3.30;91.50;;;;;;4932576;29;20190;-72
2022/03/12 07:04:44;;;;;;;15.30;13.70;;;3.60;91.00;;;;;;4931749;29;20213;-72
2022/03/12 07:07:10;;;;;;;18.57;13.13;;;4.20;89.20;;;;;;4932912;29;20742;-72
2022/03/12 07:09:37;;;;;;;13.47;12.10;;;4.90;85.80;;;;;;4935799;29;20193;-72
2022/03/12 07:12:03;;;;;;;17.30;15.57;;;5.60;82.40;;;;;;4936504;29;20198;-72
2022/03/12 07:14:30;;;;;;;20.13;13.90;;;6.00;77.80;;;;;;4935478;29;20750;-73
2022/03/12 07:16:56;;;;;;;16.87;14.37;;;6.10;75.90;;;;;;4936329;29;20807;-72
2022/03/12 07:19:22;;;;;;;15.70;13.70;;;6.30;75.10;;;;;;4935632;29;20187;-72
2022/03/12 07:21:51;;;;;;;16.07;13.73;;;6.60;74.00;;;;;;4937028;29;20209;-71
2022/03/12 07:24:18;;;;;;;14.97;13.67;;;6.60;71.50;;;;;;4935095;29;20244;-72
2022/03/12 07:26:45;;;;;;;15.67;14.07;;;6.70;70.70;;;;;;4935196;29;20190;-71
2022/03/12 07:29:11;;;;;;;15.50;13.93;;;6.50;70.40;;;;;;4936138;29;20678;-72
2022/03/12 07:31:38;;;;;;;15.00;13.33;;;6.70;71.10;;;;;;4936530;29;20189;-72
2022/03/12 07:34:05;;;;;;;14.70;11.10;;;7.00;69.50;;;;;;4936108;29;20626;-71
2022/03/12 07:36:31;;;;;;;12.57;11.10;;;7.00;67.80;;;;;;4936596;29;20186;-71
2022/03/12 07:39:03;;;;;;;12.53;11.23;;;7.00;67.80;;;;;;4934389;29;20246;-72
2022/03/12 07:41:30;;;;;;;17.30;12.43;;;7.00;67.80;;;;;;4934596;29;20229;-72
2022/03/12 07:43:56;;;;;;;13.40;11.53;;;7.00;66.40;;;;;;4935158;29;20285;-73
2022/03/12 07:46:22;;;;;;;14.77;12.27;;;7.10;66.50;;;;;;4929082;29;20278;-73
2022/03/12 07:48:49;;;;;;;13.00;11.17;;;7.20;66.50;;;;;;4932327;29;20190;-71
2022/03/12 07:51:15;;;;;;;13.93;12.47;;;7.50;65.30;;;;;;4931427;29;20207;-71
2022/03/12 07:53:41;;;;;;;14.57;10.97;;;7.50;64.40;;;;;;4915889;29;20700;-71
2022/03/12 07:56:07;;;;;;;14.07;10.93;;;7.50;64.10;;;;;;4914034;29;20187;-71
2022/03/12 07:58:34;;;;;;;16.97;11.73;;;7.50;64.40;;;;;;4930705;29;20189;-72
2022/03/12 08:01:03;;;;;;;12.93;10.47;;;7.60;63.70;;;;;;4936357;29;20182;-71
2022/03/12 08:03:29;;;;;;;14.67;11.07;;;7.80;63.10;;;;;;4935054;29;20202;-72
2022/03/12 08:05:55;;;;;;;14.03;11.47;;;7.80;62.90;;;;;;4936156;29;20206;-72
2022/03/12 08:08:21;;;;;;;13.90;10.90;;;7.80;62.20;;;;;;4934219;29;20237;-73
2022/03/12 08:13:31;;;;;;;11.27;10.03;;;7.80;61.50;;;;;;4935794;29;20246;-71
2022/03/12 08:15:59;;;;;;;16.70;11.43;;;7.80;61.20;;;;;;4936041;29;20678;-71
2022/03/12 08:18:25;;;;;;;11.80;10.43;;;7.80;62.60;;;;;;4934018;29;20282;-71
2022/03/12 08:20:52;;;;;;;12.77;11.47;;;8.00;61.90;;;;;;4934480;29;20699;-71
2022/03/12 08:23:17;;;;;;;14.07;10.63;;;8.00;61.70;;;;;;4935989;29;20678;-74
2022/03/12 08:25:43;;;;;;;13.90;10.33;;;8.30;60.50;;;;;;4935863;29;20271;-71
2022/03/12 08:28:09;;;;;;;13.83;10.47;;;8.10;59.80;;;;;;4935010;29;20182;-73
2022/03/12 08:30:36;;;;;;;14.53;11.50;;;8.30;59.70;;;;;;4935527;29;20333;-72
2022/03/12 08:33:03;;;;;;;13.57;10.67;;;8.50;59.40;;;;;;4934183;29;20221;-72
2022/03/12 08:35:29;;;;;;;14.83;10.90;;;8.90;59.00;;;;;;4935250;29;20190;-72
2022/03/12 08:37:55;;;;;;;12.87;11.07;;;9.20;57.80;;;;;;4934704;29;20310;-72
2022/03/12 08:40:21;;;;;;;12.47;11.03;;;9.60;57.00;;;;;;4934023;29;20273;-72
2022/03/12 08:42:47;;;;;;;12.03;10.10;;;10.00;56.40;;;;;;4935185;29;20202;-72
2022/03/12 08:45:13;;;;;;;12.37;10.50;;;10.30;55.00;;;;;;4927591;29;20677;-72
2022/03/12 08:47:40;;;;;;;13.40;10.77;;;10.40;55.00;;;;;;4920357;29;20269;-71
2022/03/12 08:50:08;;;;;;;13.93;11.70;;;10.40;54.40;;;;;;4935011;29;20282;-70
2022/03/12 08:52:38;;;;;;;17.40;11.67;;;10.10;54.80;;;;;;4933422;29;20284;-71
2022/03/12 08:55:06;;;;;;;12.63;11.03;;;10.10;55.40;;;;;;4935202;29;20182;-71
2022/03/12 08:57:32;;;;;;;16.60;12.37;;;10.10;55.90;;;;;;4928829;29;20178;-76
2022/03/12 08:59:58;;;;;;;16.87;12.03;;;10.60;54.80;;;;;;4932429;29;20627;-75
2022/03/12 09:02:24;;;;;;;16.60;12.67;;;10.80;54.00;;;;;;4935048;29;20273;-74
2022/03/12 09:04:51;;;;;;;18.50;12.17;;;11.00;54.10;;;;;;4934295;29;20198;-75
2022/03/12 09:07:18;;;;;;;16.00;12.30;;;11.30;53.70;;;;;;4934360;29;20254;-75
2022/03/12 09:09:45;;;;;;;16.87;12.17;;;11.50;53.00;;;;;;4928549;29;20675;-75
2022/03/12 09:12:11;;;;;;;14.03;11.20;;;11.70;52.00;;;;;;4914817;29;20201;-76
2022/03/12 09:14:36;;;;;;;14.73;11.97;;;11.50;52.20;;;;;;4916768;29;20223;-67
2022/03/12 09:17:04;;;;;;;20.97;13.10;;;11.60;53.00;;;;;;4928650;29;20187;-66
2022/03/12 09:19:32;;;;;;;18.77;12.50;;;11.90;53.20;;;;;;4931252;29;20197;-65
2022/03/12 09:21:58;;;;;;;13.63;11.30;;;12.40;51.50;;;;;;4933212;29;20880;-65
2022/03/12 09:24:24;;;;;;;17.93;12.67;;;12.20;51.40;;;;;;4934355;29;20237;-65
2022/03/12 09:26:50;;;;;;;14.00;12.60;;;12.10;51.80;;;;;;4920628;29;20188;-71
2022/03/12 09:29:16;;;;;;;12.87;11.57;;;12.50;51.30;;;;;;4931521;29;20197;-71
2022/03/12 09:31:42;;;;;;;14.23;12.73;;;12.80;50.70;;;;;;4933865;29;20189;-71
2022/03/12 09:34:08;;;;;;;15.93;13.27;;;12.90;50.60;;;;;;4932779;29;20218;-71
2022/03/12 09:36:36;;;;;;;17.73;15.83;;;13.50;49.60;;;;;;4934175;29;20532;-71
2022/03/12 09:39:04;;;;;;;13.70;12.47;;;13.90;48.60;;;;;;4933359;29;20245;-71
2022/03/12 09:41:30;;;;;;;16.63;14.93;;;14.10;47.60;;;;;;4932419;29;20266;-70
2022/03/12 09:43:56;;;;;;;16.87;14.23;;;13.80;48.20;;;;;;4933565;29;20297;-71
2022/03/12 09:46:22;;;;;;;15.73;14.03;;;14.00;48.00;;;;;;4933887;29;20190;-71
2022/03/12 09:48:48;;;;;;;14.47;12.97;;;14.30;47.50;;;;;;4933258;29;20190;-71
2022/03/12 09:51:14;;;;;;;17.40;15.00;;;14.40;47.30;;;;;;4933190;29;20273;-71
2022/03/12 09:53:41;;;;;;;15.93;12.57;;;14.70;46.80;;;;;;4933487;29;20226;-71
2022/03/12 09:56:07;;;;;;;16.87;12.27;;;15.10;46.30;;;;;;4932215;29;20185;-66
2022/03/12 09:58:32;;;;;;;15.87;12.43;;;15.20;46.70;;;;;;4933498;29;20715;-67
2022/03/12 10:00:58;;;;;;;13.63;12.23;;;15.40;46.20;;;;;;4932324;29;20783;-69
2022/03/12 10:03:24;;;;;;;16.33;13.30;;;15.40;46.80;;;;;;4933313;29;20789;-69
2022/03/12 10:05:50;;;;;;;15.57;12.67;;;16.10;52.30;;;;;;4933516;29;20617;-69
2022/03/12 10:08:17;;;;;;;15.43;12.73;;;16.90;45.70;;;;;;4933119;29;20557;-69
2022/03/12 10:10:44;;;;;;;18.33;13.67;;;16.90;46.00;;;;;;4932734;29;20182;-69
2022/03/12 10:13:11;;;;;;;18.27;14.97;;;17.00;46.30;;;;;;4953744;23;20217;-70
2022/03/12 10:15:37;;;;;;;19.90;15.47;;;17.30;46.00;;;;;;4932094;29;20183;-70
2022/03/12 10:18:03;;;;;;;19.07;16.83;;;17.60;45.60;;;;;;4931164;29;20186;-70
2022/03/12 10:20:30;;;;;;;19.00;17.00;;;17.80;45.10;;;;;;4932709;29;20182;-74
2022/03/12 10:22:56;;;;;;;21.30;19.23;;;18.30;44.00;;;;;;4931243;29;20273;-76
2022/03/12 10:25:23;;;;;;;24.23;21.73;;;18.50;44.60;;;;;;4913764;29;20182;-75
2022/03/12 10:27:49;;;;;;;28.87;23.73;;;18.70;43.60;;;;;;4911627;29;20191;-74
2022/03/12 10:30:15;;;;;;;23.83;21.73;;;18.50;42.30;;;;;;4914011;29;20227;-77
2022/03/12 10:32:45;;;;;;;26.10;23.97;;;18.70;42.30;;;;;;4917362;29;20231;-77
2022/03/12 10:35:18;;;;;;;21.20;19.07;;;18.80;42.60;;;;;;4913732;29;20801;-75
2022/03/12 10:37:45;;;;;;;21.70;19.83;;;18.70;44.40;;;;;;4912858;29;20655;-76
2022/03/12 10:40:16;;;;;;;24.50;22.27;;;18.50;43.80;;;;;;4913115;29;20194;-75
2022/03/12 10:42:56;;;;;;;28.30;25.67;;;18.80;44.10;;;;;;4914895;29;20214;-76
2022/03/12 10:45:25;;;;;;;25.77;23.63;;;19.20;42.90;;;;;;4918479;29;20190;-75
2022/03/12 10:47:56;;;;;;;24.50;22.57;;;19.60;41.20;;;;;;4917226;29;20219;-75
2022/03/12 10:50:30;;;;;;;21.67;19.67;;;19.60;42.40;;;;;;4918755;29;20183;-75
2022/03/12 10:52:58;;;;;;;21.30;19.10;;;20.00;40.50;;;;;;4917397;29;20218;-75
2022/03/12 10:55:30;;;;;;;23.43;21.27;;;19.70;41.60;;;;;;4917443;29;20195;-74
2022/03/12 10:58:19;;;;;;;26.53;24.03;;;19.40;41.90;;;;;;4918152;29;20179;-75
2022/03/12 11:00:54;;;;;;;24.47;22.60;;;18.90;44.30;;;;;;4917826;29;20281;-75
2022/03/12 11:03:22;;;;;;;20.57;18.53;;;18.80;44.90;;;;;;4916791;29;20211;-75
2022/03/12 11:05:50;;;;;;;18.83;17.17;;;18.50;46.30;;;;;;4918513;29;20194;-76
2022/03/12 11:08:23;;;;;;;20.03;18.23;;;18.40;46.00;;;;;;4917929;29;20187;-76
2022/03/12 11:10:58;;;;;;;17.80;16.13;;;18.50;46.20;;;;;;4918015;29;20294;-76
2022/03/12 11:13:34;;;;;;;17.63;15.93;;;18.70;46.90;;;;;;4916443;29;20241;-76
2022/03/12 11:16:14;;;;;;;17.47;15.93;;;19.10;47.00;;;;;;4917185;29;20732;-76
2022/03/12 11:18:52;;;;;;;20.03;18.10;;;19.10;46.70;;;;;;4916760;29;20190;-76
2022/03/12 11:21:44;;;;;;;19.67;17.87;;;19.30;46.50;;;;;;4916680;29;20182;-75
2022/03/12 11:24:42;;;;;;;18.00;16.30;;;19.40;46.20;;;;;;4917728;29;20270;-76
2022/03/12 11:27:08;;;;;;;19.10;17.40;;;19.80;45.60;;;;;;4917534;29;20222;-76
2022/03/12 11:29:34;;;;;;;19.67;17.77;;;19.90;45.30;;;;;;4917764;29;20235;-76
2022/03/12 11:32:05;;;;;;;22.47;20.50;;;20.30;44.80;;;;;;4917450;29;20198;-75
2022/03/12 11:34:40;;;;;;;19.13;17.73;;;20.40;44.30;;;;;;4902590;29;20211;-77
2022/03/12 11:37:15;;;;;;;20.93;18.97;;;20.00;45.20;;;;;;4912127;29;20189;-77
2022/03/12 11:39:47;;;;;;;19.97;18.17;;;19.40;46.90;;;;;;4908725;29;20195;-77
2022/03/12 11:42:20;;;;;;;19.17;17.47;;;19.50;46.50;;;;;;4897339;29;20676;-76
2022/03/12 11:44:52;;;;;;;17.40;15.90;;;19.20;47.00;;;;;;4899159;29;20210;-77
2022/03/12 11:47:21;;;;;;;15.47;14.10;;;18.80;47.60;;;;;;4927922;29;20202;-76
2022/03/12 11:49:48;;;;;;;16.80;15.40;;;19.10;47.50;;;;;;4921758;29;20187;-76
2022/03/12 11:52:16;;;;;;;19.00;17.17;;;19.80;47.50;;;;;;4913176;29;20194;-77
2022/03/12 11:54:43;;;;;;;19.40;17.70;;;19.80;46.40;;;;;;4923525;29;20199;-76
2022/03/12 11:57:20;;;;;;;19.47;17.67;;;20.10;46.00;;;;;;4915587;29;20274;-76
2022/03/12 11:59:46;;;;;;;17.57;15.80;;;20.50;45.50;;;;;;4917460;29;20191;-76
2022/03/12 12:02:25;;;;;;;16.77;15.38;;;21.40;44.10;;;;;;4918935;29;20183;-83
2022/03/12 12:04:52;;;;;;;17.52;16.00;;;21.70;43.70;;;;;;4917328;29;20232;-76
2022/03/12 12:07:26;;;;;;;16.42;14.65;;;22.00;43.20;;;;;;4914182;29;20242;-76
2022/03/12 12:09:52;;;;;;;15.77;14.43;;;22.40;42.20;;;;;;4917691;29;20597;-76
2022/03/12 12:12:22;;;;;;;13.40;12.07;;;22.70;41.90;;;;;;4916332;29;20179;-76
2022/03/12 12:14:48;;;;;;;10.68;9.57;;;23.10;42.40;;;;;;4917093;29;20246;-76
2022/03/12 12:17:14;;;;;;;10.55;9.57;;;23.20;42.10;;;;;;4915722;29;20627;-77
2022/03/12 12:19:40;;;;;;;11.88;9.40;;;22.90;41.10;;;;;;4917170;29;20270;-78
2022/03/12 12:22:08;;;;;;;11.02;9.52;;;22.80;42.00;;;;;;4916871;29;20801;-78
2022/03/12 12:24:44;;;;;;;11.43;10.25;;;22.20;42.00;;;;;;4917275;29;20639;-78
2022/03/12 12:27:12;;;;;;;11.90;10.85;;;21.90;42.60;;;;;;4916406;29;20179;-77
2022/03/12 12:29:48;;;;;;;10.38;9.32;;;22.10;42.70;;;;;;4915693;29;20194;-78
2022/03/12 12:32:44;;;;;;;11.90;10.43;;;22.80;41.20;;;;;;4925138;29;20183;-77
2022/03/12 12:35:16;;;;;;;12.10;9.55;;;22.80;41.10;;;;;;4926659;29;20207;-78
2022/03/12 12:38:04;;;;;;;11.77;9.73;;;22.50;42.00;;;;;;4916243;29;20837;-78
2022/03/12 12:40:44;;;;;;;10.13;9.05;;;23.30;40.80;;;;;;4915078;29;20191;-78
2022/03/12 12:43:13;;;;;;;10.68;9.50;;;24.00;39.00;;;;;;4915198;29;20699;-78
2022/03/12 12:45:53;;;;;;;10.25;9.25;;;23.50;39.80;;;;;;4915336;29;20187;-78
2022/03/12 12:48:45;;;;;;;9.20;8.32;;;24.10;38.80;;;;;;4897314;29;20211;-78
2022/03/12 12:51:21;;;;;;;11.38;10.20;;;23.90;39.00;;;;;;4897648;29;20211;-80
2022/03/12 12:53:50;;;;;;;10.35;9.38;;;24.30;39.10;;;;;;4897542;29;20219;-77
2022/03/12 12:56:23;;;;;;;10.07;9.07;;;25.10;37.10;;;;;;4900471;29;20183;-77
2022/03/12 12:58:52;;;;;;;12.25;9.25;;;24.50;37.60;;;;;;4916043;29;20278;-78
2022/03/12 13:01:23;;;;;;;10.38;9.38;;;24.40;37.90;;;;;;4916254;29;20191;-78
2022/03/12 13:03:51;;;;;;;10.40;9.30;;;24.60;38.30;;;;;;4916061;29;20211;-78
2022/03/12 13:06:35;;;;;;;10.77;9.75;;;23.60;39.70;;;;;;4915048;29;20239;-78
2022/03/12 13:09:08;;;;;;;10.90;8.23;;;24.50;37.50;;;;;;4915697;29;20194;-77
2022/03/12 13:11:50;;;;;;;11.48;10.20;;;24.00;37.80;;;;;;4915037;29;20194;-77
2022/03/12 13:14:18;;;;;;;10.60;9.55;;;23.70;38.40;;;;;;4915633;29;20223;-77
2022/03/12 13:17:03;;;;;;;9.98;8.95;;;24.20;37.80;;;;;;4914486;29;20664;-77
2022/03/12 13:19:28;;;;;;;10.40;9.38;;;25.40;35.90;;;;;;4915593;29;20192;-77
2022/03/12 13:21:58;;;;;;;10.75;8.95;;;25.30;36.30;;;;;;4915851;29;20172;-77
2022/03/12 13:24:27;;;;;;;10.85;9.07;;;25.10;35.90;;;;;;4915964;29;20664;-76
2022/03/12 13:26:53;;;;;;;9.90;8.90;;;24.80;35.90;;;;;;4915354;29;20175;-76
2022/03/12 13:29:22;;;;;;;10.35;9.18;;;24.60;36.40;;;;;;4915365;29;20197;-77
2022/03/12 13:31:48;;;;;;;10.38;9.18;;;25.10;35.70;;;;;;4914623;29;20299;-77
2022/03/12 13:34:15;;;;;;;10.82;9.73;;;24.40;36.40;;;;;;4915453;29;20226;-77
2022/03/12 13:36:47;;;;;;;10.27;9.25;;;24.30;37.20;;;;;;4914520;29;20183;-76
2022/03/12 13:39:17;;;;;;;10.77;9.02;;;24.40;36.60;;;;;;4915137;29;20250;-77
2022/03/12 13:41:46;;;;;;;11.93;9.75;;;24.00;36.80;;;;;;4914585;29;20190;-77
2022/03/12 13:44:14;;;;;;;11.52;10.30;;;23.70;37.50;;;;;;4914657;29;20207;-77
2022/03/12 13:46:41;;;;;;;12.25;10.13;;;24.40;36.40;;;;;;4914477;29;20190;-77
2022/03/12 13:49:09;;;;;;;10.55;9.45;;;24.70;36.20;;;;;;4914376;29;20258;-77
2022/03/12 13:51:39;;;;;;;10.45;9.35;;;24.50;36.30;;;;;;4915596;29;20648;-78
2022/03/12 13:54:06;;;;;;;11.00;9.88;;;24.70;36.10;;;;;;4915303;29;20223;-77
2022/03/12 13:56:33;;;;;;;11.15;9.98;;;25.30;35.70;;;;;;4914037;29;20183;-76
2022/03/12 13:59:04;;;;;;;10.80;9.70;;;25.00;35.70;;;;;;4913791;29;20175;-77
2022/03/12 14:01:32;;;;;;;12.57;11.38;;;24.70;35.80;;;;;;4914273;29;20195;-76
2022/03/12 14:03:58;;;;;;;10.85;9.77;;;23.60;36.80;;;;;;4918111;29;20207;-78
2022/03/12 14:06:42;;;;;;;14.82;9.77;;;22.50;38.70;;;;;;4920838;29;20186;-77
2022/03/12 14:09:10;;;;;;;17.33;11.13;;;21.70;40.10;;;;;;4915643;29;20277;-76
2022/03/12 14:11:39;;;;;;;10.80;9.73;;;21.50;40.90;;;;;;4914198;29;20190;-76
2022/03/12 14:14:07;;;;;;;12.20;10.95;;;21.70;40.80;;;;;;4915022;29;20860;-76
2022/03/12 14:16:38;;;;;;;12.43;11.23;;;21.40;40.80;;;;;;4915048;29;20190;-76
2022/03/12 14:19:05;;;;;;;12.33;11.13;;;20.80;41.30;;;;;;4914404;29;20572;-76
2022/03/12 14:21:43;;;;;;;12.07;10.93;;;20.30;42.20;;;;;;4914883;29;20603;-77
2022/03/12 14:24:21;;;;;;;13.93;12.63;;;20.60;42.20;;;;;;4914964;29;20274;-77
2022/03/12 14:27:00;;;;;;;15.60;14.00;;;20.10;43.20;;;;;;4914981;29;20194;-76
2022/03/12 14:29:35;;;;;;;21.13;19.23;;;19.20;43.90;;;;;;4915038;29;20186;-77
2022/03/12 14:32:07;;;;;;;25.67;23.63;;;18.90;44.80;;;;;;4915123;29;20567;-76
2022/03/12 14:34:34;;;;;;;29.83;27.73;;;18.80;45.10;;;;;;4915007;29;20722;-76
2022/03/12 14:37:02;;;;;;;30.00;27.90;;;18.90;44.80;;;;;;4915042;29;20182;-76
2022/03/12 14:39:29;;;;;;;33.10;30.43;;;18.70;45.10;;;;;;4914905;29;20183;-77
2022/03/12 14:41:58;;;;;;;28.47;26.40;;;18.70;45.40;;;;;;4913648;29;20187;-76
2022/03/12 14:44:25;;;;;;;27.43;25.53;;;18.60;45.00;;;;;;4914647;29;20211;-75
2022/03/12 14:46:53;;;;;;;27.53;25.40;;;18.90;44.60;;;;;;4913072;29;20186;-76
2022/03/12 14:49:25;;;;;;;26.50;24.37;;;19.20;44.10;;;;;;4913615;29;20193;-76
2022/03/12 14:51:55;;;;;;;26.93;24.80;;;19.40;43.80;;;;;;4913548;29;20198;-75
2022/03/12 14:54:23;;;;;;;27.53;25.43;;;19.60;43.50;;;;;;4913273;29;20222;-74
2022/03/12 14:56:50;;;;;;;26.73;24.63;;;19.60;42.90;;;;;;4913266;29;20179;-75
2022/03/12 14:59:16;;;;;;;27.70;25.47;;;19.70;42.80;;;;;;4914638;29;20222;-75
2022/03/12 15:01:42;;;;;;;25.27;23.10;;;19.90;42.60;;;;;;4913484;29;20663;-75
2022/03/12 15:04:08;;;;;;;22.47;20.50;;;19.60;42.80;;;;;;4913542;29;20210;-75
2022/03/12 15:06:35;;;;;;;24.90;22.90;;;19.50;42.70;;;;;;4914395;29;20677;-75
2022/03/12 15:09:06;;;;;;;27.53;25.43;;;19.00;43.50;;;;;;4913218;29;20183;-76
2022/03/12 15:11:34;;;;;;;29.67;27.47;;;18.70;44.20;;;;;;4914664;29;20191;-76
2022/03/12 15:14:01;;;;;;;30.70;28.33;;;18.70;44.40;;;;;;4914561;29;20218;-75
2022/03/12 15:16:30;;;;;;;33.57;30.83;;;18.20;45.20;;;;;;4914313;29;20711;-75
2022/03/12 15:18:57;;;;;;;25.20;23.20;;;17.60;46.00;;;;;;4914192;29;20190;-75
2022/03/12 15:21:23;;;;;;;20.83;19.03;;;17.20;47.10;;;;;;4914150;29;20554;-76
2022/03/12 15:23:49;;;;;;;17.03;15.33;;;16.80;47.60;;;;;;4911234;29;20214;-75
2022/03/12 15:26:15;;;;;;;16.90;12.77;;;16.30;48.50;;;;;;4912979;29;20286;-76
2022/03/12 15:28:49;;;;;;;18.97;13.07;;;15.90;49.50;;;;;;4898648;29;20343;-76
2022/03/12 15:31:18;;;;;;;15.93;12.17;;;15.70;50.00;;;;;;4897054;29;20225;-75
2022/03/12 15:33:50;;;;;;;17.17;11.63;;;15.70;50.20;;;;;;4898511;29;20591;-75
2022/03/12 15:36:25;;;;;;;14.80;11.37;;;15.60;50.30;;;;;;4899307;29;20190;-75
2022/03/12 15:38:53;;;;;;;13.23;11.23;;;15.60;50.50;;;;;;4897513;29;20190;-74
2022/03/12 15:41:20;;;;;;;15.43;11.60;;;15.70;50.50;;;;;;4898779;29;20187;-75
2022/03/12 15:43:48;;;;;;;15.63;11.00;;;15.80;50.30;;;;;;4898712;29;20589;-74
2022/03/12 15:46:15;;;;;;;14.10;11.57;;;15.80;50.70;;;;;;4898517;29;20183;-75
2022/03/12 15:48:41;;;;;;;14.73;11.23;;;15.90;50.20;;;;;;4916595;29;20242;-75
2022/03/12 15:51:08;;;;;;;14.83;12.23;;;15.90;50.50;;;;;;4917508;29;20711;-74
2022/03/12 15:53:35;;;;;;;12.50;10.77;;;15.90;50.10;;;;;;4916322;29;20811;-77
2022/03/12 15:56:02;;;;;;;13.97;11.50;;;16.00;49.60;;;;;;4918152;29;20187;-73
2022/03/12 15:58:28;;;;;;;14.90;11.53;;;15.90;49.70;;;;;;4918719;29;20187;-76
2022/03/12 16:00:54;;;;;;;13.97;10.93;;;15.80;50.30;;;;;;4918160;29;20183;-76
2022/03/12 16:03:21;;;;;;;15.20;11.03;;;15.70;50.20;;;;;;4917338;29;20270;-75
2022/03/12 16:05:47;;;;;;;13.97;10.83;;;15.70;50.90;;;;;;4918071;29;20187;-75
2022/03/12 16:08:13;;;;;;;14.40;12.10;;;15.70;50.40;;;;;;4916930;29;20199;-77
2022/03/12 16:10:41;;;;;;;13.43;10.17;;;15.90;50.00;;;;;;4917647;29;20222;-76
2022/03/12 16:15:41;;;;;;;13.77;11.50;;;15.90;49.70;;;;;;4955676;23;20701;-67
2022/03/12 16:18:13;;;;;;;15.63;11.50;;;15.70;50.40;;;;;;4934952;29;20673;-67
2022/03/12 16:20:40;;;;;;;15.83;10.67;;;15.60;50.50;;;;;;4934852;29;20705;-67
2022/03/12 16:23:06;;;;;;;13.50;10.53;;;15.30;51.00;;;;;;4936200;29;20214;-73
2022/03/12 16:25:32;;;;;;;14.07;11.13;;;15.00;51.80;;;;;;4916341;29;20234;-72
2022/03/12 16:27:59;;;;;;;12.63;11.23;;;14.70;52.10;;;;;;4915223;29;20183;-73
2022/03/12 16:30:45;;;;;;;14.57;11.50;;;14.60;52.50;;;;;;4916929;29;20229;-73
2022/03/12 16:33:11;;;;;;;15.20;12.90;;;14.50;52.70;;;;;;4916740;29;20207;-72
2022/03/12 16:35:37;;;;;;;16.90;13.03;;;14.40;53.30;;;;;;4916231;29;20202;-71
2022/03/12 16:38:04;;;;;;;15.17;13.57;;;14.20;53.70;;;;;;4916148;29;20712;-73
2022/03/12 16:40:37;;;;;;;16.47;13.60;;;13.90;54.30;;;;;;4915839;29;20663;-73
2022/03/12 16:43:09;;;;;;;18.73;12.97;;;13.70;54.90;;;;;;4915285;29;20286;-72